Quincy, WA

4:03 PM PDT on September 01, 2015 (GMT -0700)
MesoWest | | Change Station
CLOSE
Current Station
Personal Weather Station
Location: George, WA
Elevation: 1227 ft
Nearby Weather Stations

Elev 1227 ft 47.04 °N, 119.92 °W | Updated 48 minutes ago

Clear
Clear
77.0 °F
Feels Like 77.0 °F
N
3.0
Wind Variable Wind from SW
Gusts 13.0 mph

Today
High -- | Low -- °F
--% Chance of Precip.
Yesterday
High -- | Low -- °F
Precip. -- in
6:18 AM 7:39 PM
Waning Gibbous, 85% visible
Pressure 29.72 in
Visibility 10.0 miles
Clouds Clear
Dew Point 44.0 °F
Humidity 30%
Rainfall in
Snow Depth Not available.
UV 4 out of 12
Pollen 4.20 out of 12
Air Quality Not available.
Flu Activity Not available.
METAR KEPH 012253Z AUTO VRB06KT 10SM CLR 25/07 A2974 RMK AO2 SLP064 T02500072
Pressure 29.72 in
Visibility 10.0 miles
Clouds Clear
Dew Point 44.0 °F
Humidity 30%
Rainfall in
Snow Depth Not available.
UV 4 out of 12
Pollen 4.20 out of 12
Air Quality Not available.
Flu Activity Not available.
METAR KEPH 012253Z AUTO VRB06KT 10SM CLR 25/07 A2974 RMK AO2 SLP064 T02500072

10-Day Weather Forecast

×

Almanac

Astronomy

Sep. 01, 2015 Rise Set
Actual Time
Civil Twilight
Nautical Twilight
Astronomical Twilight
Moon
Length of Visible Light
Length of Day
Tomorrow will be .
, % of the Moon is Illuminated

Today's Extremes

State Highs State Lows

Community

WunderPhotos

Upload Photos

1,851,636 photos uploaded!

WunderBlogs® & News

Nearby

Air Quality

  Air Quality AQ Index Pollutant
Not available.

Snow Depth

Station Depth Elevation

Earthquake Activity

City Distance Mag. Time & Date
Minimum magnitude displayed is 2.5.

Coastal Water Temperatures

Place Temperature

Stations

Nearby Weather Stations

Station Location Temp. Windchill Dew Point Humidity Wind Precip. Elev Updated Type